sensor_id;sensor_type;location;lat;lon;timestamp;pressure;altitude;pressure_sealevel;temperature;humidity
4398;BME280;2213;49.720;7.296;2023-04-24T00:02:11;96854.31;;;12.02;100.00
4398;BME280;2213;49.720;7.296;2023-04-24T00:04:42;96851.91;;;12.01;100.00
4398;BME280;2213;49.720;7.296;2023-04-24T00:07:14;96859.53;;;12.02;100.00
4398;BME280;2213;49.720;7.296;2023-04-24T00:09:45;96857.59;;;11.98;100.00
4398;BME280;2213;49.720;7.296;2023-04-24T00:12:15;96862.06;;;11.97;100.00
4398;BME280;2213;49.720;7.296;2023-04-24T00:14:45;96873.75;;;11.95;100.00
4398;BME280;2213;49.720;7.296;2023-04-24T00:17:15;96870.56;;;11.93;100.00
4398;BME280;2213;49.720;7.296;2023-04-24T00:19:48;96868.53;;;11.95;100.00
4398;BME280;2213;49.720;7.296;2023-04-24T00:22:20;96879.81;;;11.95;100.00
4398;BME280;2213;49.720;7.296;2023-04-24T00:24:51;96878.88;;;11.90;100.00
4398;BME280;2213;49.720;7.296;2023-04-24T00:27:21;96875.69;;;11.88;100.00
4398;BME280;2213;49.720;7.296;2023-04-24T00:29:50;96885.28;;;11.94;100.00
4398;BME280;2213;49.720;7.296;2023-04-24T00:32:19;96880.03;;;11.94;100.00
4398;BME280;2213;49.720;7.296;2023-04-24T00:34:49;96886.06;;;11.94;100.00
4398;BME280;2213;49.720;7.296;2023-04-24T00:37:21;96885.84;;;11.96;100.00
4398;BME280;2213;49.720;7.296;2023-04-24T00:39:51;96882.66;;;11.94;100.00
4398;BME280;2213;49.720;7.296;2023-04-24T00:42:21;96884.81;;;11.97;100.00
4398;BME280;2213;49.720;7.296;2023-04-24T00:44:51;96884.69;;;11.92;100.00
4398;BME280;2213;49.720;7.296;2023-04-24T00:47:21;96879.44;;;11.92;100.00
4398;BME280;2213;49.720;7.296;2023-04-24T00:49:50;96892.91;;;11.95;100.00
4398;BME280;2213;49.720;7.296;2023-04-24T00:52:22;96892.56;;;11.92;100.00
4398;BME280;2213;49.720;7.296;2023-04-24T00:54:52;96881.25;;;11.91;100.00
4398;BME280;2213;49.720;7.296;2023-04-24T00:57:23;96876.63;;;11.93;100.00
4398;BME280;2213;49.720;7.296;2023-04-24T00:59:54;96873.66;;;11.90;100.00
4398;BME280;2213;49.720;7.296;2023-04-24T01:02:24;96880.69;;;11.89;100.00
4398;BME280;2213;49.720;7.296;2023-04-24T01:04:54;96878.44;;;11.93;100.00
4398;BME280;2213;49.720;7.296;2023-04-24T01:07:27;96875.47;;;11.89;100.00
4398;BME280;2213;49.720;7.296;2023-04-24T01:09:58;96880.13;;;11.87;100.00
4398;BME280;2213;49.720;7.296;2023-04-24T01:12:28;96874.31;;;11.85;100.00
4398;BME280;2213;49.720;7.296;2023-04-24T01:14:57;96885.69;;;11.79;100.00
4398;BME280;2213;49.720;7.296;2023-04-24T01:17:27;96887.34;;;11.74;100.00
4398;BME280;2213;49.720;7.296;2023-04-24T01:19:59;96892.84;;;11.72;100.00
4398;BME280;2213;49.720;7.296;2023-04-24T01:22:30;96899.00;;;11.59;100.00
4398;BME280;2213;49.720;7.296;2023-04-24T01:25:00;96893.00;;;11.59;100.00
4398;BME280;2213;49.720;7.296;2023-04-24T01:27:31;96894.91;;;11.63;100.00
4398;BME280;2213;49.720;7.296;2023-04-24T01:30:00;96896.97;;;11.61;100.00
4398;BME280;2213;49.720;7.296;2023-04-24T01:32:30;96898.44;;;11.57;100.00
4398;BME280;2213;49.720;7.296;2023-04-24T01:35:00;96906.28;;;11.57;100.00
4398;BME280;2213;49.720;7.296;2023-04-24T01:37:32;96899.00;;;11.59;100.00
4398;BME280;2213;49.720;7.296;2023-04-24T01:40:01;96907.28;;;11.56;100.00
4398;BME280;2213;49.720;7.296;2023-04-24T01:42:31;96901.34;;;11.49;100.00
4398;BME280;2213;49.720;7.296;2023-04-24T01:45:04;96910.81;;;11.50;100.00
4398;BME280;2213;49.720;7.296;2023-04-24T01:47:34;96903.75;;;11.51;100.00
4398;BME280;2213;49.720;7.296;2023-04-24T01:50:08;96903.75;;;11.51;100.00
4398;BME280;2213;49.720;7.296;2023-04-24T01:52:41;96906.94;;;11.53;100.00
4398;BME280;2213;49.720;7.296;2023-04-24T01:55:10;96912.41;;;11.51;100.00
4398;BME280;2213;49.720;7.296;2023-04-24T01:57:40;96909.44;;;11.48;100.00
4398;BME280;2213;49.720;7.296;2023-04-24T02:00:11;96896.56;;;11.28;100.00
4398;BME280;2213;49.720;7.296;2023-04-24T02:02:42;96901.59;;;11.30;100.00
4398;BME280;2213;49.720;7.296;2023-04-24T02:05:14;96915.69;;;11.29;100.00
4398;BME280;2213;49.720;7.296;2023-04-24T02:07:45;96916.50;;;11.29;100.00
4398;BME280;2213;49.720;7.296;2023-04-24T02:10:14;96916.38;;;11.24;100.00
4398;BME280;2213;49.720;7.296;2023-04-24T02:12:44;96917.50;;;11.28;100.00
4398;BME280;2213;49.720;7.296;2023-04-24T02:15:14;96918.38;;;11.22;100.00
4398;BME280;2213;49.720;7.296;2023-04-24T02:17:45;96923.84;;;11.21;100.00
4398;BME280;2213;49.720;7.296;2023-04-24T02:20:16;96917.81;;;11.20;100.00
4398;BME280;2213;49.720;7.296;2023-04-24T02:22:47;96921.88;;;11.16;100.00
4398;BME280;2213;49.720;7.296;2023-04-24T02:25:16;96928.00;;;11.10;100.00
4398;BME280;2213;49.720;7.296;2023-04-24T02:27:46;96943.69;;;11.10;100.00
4398;BME280;2213;49.720;7.296;2023-04-24T02:30:15;96952.38;;;11.04;100.00
4398;BME280;2213;49.720;7.296;2023-04-24T02:32:45;96959.81;;;11.07;100.00
4398;BME280;2213;49.720;7.296;2023-04-24T02:35:16;96963.44;;;11.06;100.00
4398;BME280;2213;49.720;7.296;2023-04-24T02:37:48;96973.00;;;10.94;100.00
4398;BME280;2213;49.720;7.296;2023-04-24T02:40:19;96980.41;;;10.97;100.00
4398;BME280;2213;49.720;7.296;2023-04-24T02:42:49;96975.63;;;10.94;100.00
4398;BME280;2213;49.720;7.296;2023-04-24T02:45:18;96979.47;;;10.91;100.00
4398;BME280;2213;49.720;7.296;2023-04-24T02:47:48;96985.94;;;10.89;100.00
4398;BME280;2213;49.720;7.296;2023-04-24T02:50:18;96986.81;;;10.83;100.00
4398;BME280;2213;49.720;7.296;2023-04-24T02:52:50;96981.97;;;10.86;100.00
4398;BME280;2213;49.720;7.296;2023-04-24T02:55:21;96980.97;;;10.81;100.00
4398;BME280;2213;49.720;7.296;2023-04-24T02:57:52;96987.38;;;10.85;100.00
4398;BME280;2213;49.720;7.296;2023-04-24T03:00:23;96986.16;;;10.87;100.00
4398;BME280;2213;49.720;7.296;2023-04-24T03:02:54;96986.97;;;10.88;100.00
4398;BME280;2213;49.720;7.296;2023-04-24T03:05:24;96985.34;;;10.87;100.00
4398;BME280;2213;49.720;7.296;2023-04-24T03:07:56;96990.44;;;10.82;100.00
4398;BME280;2213;49.720;7.296;2023-04-24T03:10:26;96984.59;;;10.80;100.00
4398;BME280;2213;49.720;7.296;2023-04-24T03:12:56;96990.06;;;10.78;100.00
4398;BME280;2213;49.720;7.296;2023-04-24T03:15:26;96981.47;;;10.71;100.00
4398;BME280;2213;49.720;7.296;2023-04-24T03:17:56;96975.44;;;10.71;100.00
4398;BME280;2213;49.720;7.296;2023-04-24T03:20:27;96974.50;;;10.65;100.00
4398;BME280;2213;49.720;7.296;2023-04-24T03:22:58;96982.38;;;10.58;100.00
4398;BME280;2213;49.720;7.296;2023-04-24T03:25:28;96993.25;;;10.55;100.00
4398;BME280;2213;49.720;7.296;2023-04-24T03:27:57;96992.50;;;10.48;100.00
4398;BME280;2213;49.720;7.296;2023-04-24T03:30:27;96998.75;;;10.47;100.00
4398;BME280;2213;49.720;7.296;2023-04-24T03:32:57;97005.84;;;10.40;100.00
4398;BME280;2213;49.720;7.296;2023-04-24T03:35:28;97004.22;;;10.39;100.00
4398;BME280;2213;49.720;7.296;2023-04-24T03:37:59;97005.22;;;10.38;100.00
4398;BME280;2213;49.720;7.296;2023-04-24T03:40:28;97013.06;;;10.38;100.00
4398;BME280;2213;49.720;7.296;2023-04-24T03:42:58;97015.47;;;10.40;100.00
4398;BME280;2213;49.720;7.296;2023-04-24T03:45:28;97017.72;;;10.36;100.00
4398;BME280;2213;49.720;7.296;2023-04-24T03:47:59;97023.94;;;10.35;100.00
4398;BME280;2213;49.720;7.296;2023-04-24T03:50:29;97029.16;;;10.35;100.00
4398;BME280;2213;49.720;7.296;2023-04-24T03:53:00;97030.63;;;10.25;100.00
4398;BME280;2213;49.720;7.296;2023-04-24T03:55:30;97024.00;;;10.29;100.00
4398;BME280;2213;49.720;7.296;2023-04-24T03:58:00;97019.56;;;10.29;100.00
4398;BME280;2213;49.720;7.296;2023-04-24T04:00:31;97017.19;;;10.21;100.00
4398;BME280;2213;49.720;7.296;2023-04-24T04:03:01;97019.25;;;10.13;100.00
4398;BME280;2213;49.720;7.296;2023-04-24T04:05:32;97024.50;;;10.06;100.00
4398;BME280;2213;49.720;7.296;2023-04-24T04:08:03;97024.91;;;10.03;100.00
4398;BME280;2213;49.720;7.296;2023-04-24T04:10:33;97026.47;;;10.10;100.00
4398;BME280;2213;49.720;7.296;2023-04-24T04:13:01;97028.50;;;10.15;100.00
4398;BME280;2213;49.720;7.296;2023-04-24T04:15:31;97029.28;;;10.16;100.00
4398;BME280;2213;49.720;7.296;2023-04-24T04:18:00;97031.69;;;10.10;100.00
4398;BME280;2213;49.720;7.296;2023-04-24T04:20:30;97035.09;;;10.11;100.00
4398;BME280;2213;49.720;7.296;2023-04-24T04:22:58;97031.56;;;9.99;100.00
4398;BME280;2213;49.720;7.296;2023-04-24T04:25:30;97027.34;;;9.98;100.00
4398;BME280;2213;49.720;7.296;2023-04-24T04:28:01;97025.31;;;10.00;100.00
4398;BME280;2213;49.720;7.296;2023-04-24T04:30:30;97022.53;;;9.95;100.00
4398;BME280;2213;49.720;7.296;2023-04-24T04:33:01;97032.19;;;9.94;100.00
4398;BME280;2213;49.720;7.296;2023-04-24T04:35:30;97030.38;;;9.95;100.00
4398;BME280;2213;49.720;7.296;2023-04-24T04:38:00;97033.97;;;9.94;100.00
4398;BME280;2213;49.720;7.296;2023-04-24T04:40:32;97038.41;;;9.93;100.00
4398;BME280;2213;49.720;7.296;2023-04-24T04:43:02;97046.47;;;9.92;100.00
4398;BME280;2213;49.720;7.296;2023-04-24T04:45:32;97040.63;;;9.90;100.00
4398;BME280;2213;49.720;7.296;2023-04-24T04:48:03;97047.88;;;9.88;100.00
4398;BME280;2213;49.720;7.296;2023-04-24T04:50:32;97049.06;;;9.92;100.00
4398;BME280;2213;49.720;7.296;2023-04-24T04:53:02;97063.13;;;9.91;100.00
4398;BME280;2213;49.720;7.296;2023-04-24T04:55:34;97057.50;;;9.94;100.00
4398;BME280;2213;49.720;7.296;2023-04-24T04:58:03;97059.50;;;9.92;100.00
4398;BME280;2213;49.720;7.296;2023-04-24T05:00:33;97061.34;;;9.85;100.00
4398;BME280;2213;49.720;7.296;2023-04-24T05:03:03;97068.75;;;9.88;100.00
4398;BME280;2213;49.720;7.296;2023-04-24T05:05:47;97070.00;;;9.79;100.00
4398;BME280;2213;49.720;7.296;2023-04-24T05:08:17;97077.44;;;9.82;100.00
4398;BME280;2213;49.720;7.296;2023-04-24T05:10:55;97081.63;;;9.83;100.00
4398;BME280;2213;49.720;7.296;2023-04-24T05:13:25;97090.06;;;9.85;100.00
4398;BME280;2213;49.720;7.296;2023-04-24T05:16:07;97095.28;;;9.85;100.00
4398;BME280;2213;49.720;7.296;2023-04-24T05:18:36;97095.47;;;9.83;100.00
4398;BME280;2213;49.720;7.296;2023-04-24T05:21:06;97084.84;;;9.85;100.00
4398;BME280;2213;49.720;7.296;2023-04-24T05:23:35;97088.84;;;9.87;100.00
4398;BME280;2213;49.720;7.296;2023-04-24T05:26:06;97091.66;;;9.92;100.00
4398;BME280;2213;49.720;7.296;2023-04-24T05:28:37;97104.50;;;9.94;100.00
4398;BME280;2213;49.720;7.296;2023-04-24T05:31:06;97104.72;;;9.92;100.00
4398;BME280;2213;49.720;7.296;2023-04-24T05:33:35;97105.91;;;9.90;100.00
4398;BME280;2213;49.720;7.296;2023-04-24T05:36:07;97104.09;;;9.90;100.00
4398;BME280;2213;49.720;7.296;2023-04-24T05:38:38;97098.06;;;9.90;100.00
4398;BME280;2213;49.720;7.296;2023-04-24T05:41:10;97102.88;;;9.93;100.00
4398;BME280;2213;49.720;7.296;2023-04-24T05:43:38;97106.91;;;9.95;100.00
4398;BME280;2213;49.720;7.296;2023-04-24T05:46:09;97111.72;;;9.98;100.00
4398;BME280;2213;49.720;7.296;2023-04-24T05:48:38;97107.72;;;9.96;100.00
4398;BME280;2213;49.720;7.296;2023-04-24T05:51:10;97108.09;;;9.99;100.00
4398;BME280;2213;49.720;7.296;2023-04-24T05:53:40;97117.75;;;9.99;100.00
4398;BME280;2213;49.720;7.296;2023-04-24T05:56:11;97112.13;;;9.95;100.00
4398;BME280;2213;49.720;7.296;2023-04-24T05:58:41;97118.75;;;9.98;100.00
4398;BME280;2213;49.720;7.296;2023-04-24T06:01:10;97126.97;;;10.01;100.00
4398;BME280;2213;49.720;7.296;2023-04-24T06:03:41;97124.94;;;10.03;100.00
4398;BME280;2213;49.720;7.296;2023-04-24T06:06:10;97129.38;;;10.03;100.00
4398;BME280;2213;49.720;7.296;2023-04-24T06:08:41;97137.03;;;9.98;100.00
4398;BME280;2213;49.720;7.296;2023-04-24T06:11:13;97138.22;;;10.02;100.00
4398;BME280;2213;49.720;7.296;2023-04-24T06:13:43;97132.59;;;9.98;100.00
4398;BME280;2213;49.720;7.296;2023-04-24T06:16:12;97142.06;;;9.99;100.00
4398;BME280;2213;49.720;7.296;2023-04-24T06:18:41;97132.59;;;9.98;100.00
4398;BME280;2213;49.720;7.296;2023-04-24T06:21:11;97121.53;;;10.09;100.00
4398;BME280;2213;49.720;7.296;2023-04-24T06:23:42;97130.59;;;10.00;100.00
4398;BME280;2213;49.720;7.296;2023-04-24T06:26:11;97124.16;;;9.96;100.00
4398;BME280;2213;49.720;7.296;2023-04-24T06:28:41;97124.56;;;10.00;100.00
4398;BME280;2213;49.720;7.296;2023-04-24T06:31:12;97127.75;;;10.08;100.00
4398;BME280;2213;49.720;7.296;2023-04-24T06:33:43;97128.34;;;10.17;100.00
4398;BME280;2213;49.720;7.296;2023-04-24T06:36:12;97143.63;;;10.20;100.00
4398;BME280;2213;49.720;7.296;2023-04-24T06:38:41;97135.78;;;10.20;100.00
4398;BME280;2213;49.720;7.296;2023-04-24T06:41:13;97137.34;;;10.28;100.00
4398;BME280;2213;49.720;7.296;2023-04-24T06:43:43;97135.72;;;10.33;100.00
4398;BME280;2213;49.720;7.296;2023-04-24T06:46:14;97139.72;;;10.36;100.00
4398;BME280;2213;49.720;7.296;2023-04-24T06:48:44;97144.16;;;10.35;100.00
4398;BME280;2213;49.720;7.296;2023-04-24T06:51:15;97140.97;;;10.33;100.00
4398;BME280;2213;49.720;7.296;2023-04-24T06:53:46;97142.56;;;10.34;100.00
4398;BME280;2213;49.720;7.296;2023-04-24T06:56:18;97148.19;;;10.31;100.00
4398;BME280;2213;49.720;7.296;2023-04-24T06:58:47;97159.25;;;10.33;100.00
4398;BME280;2213;49.720;7.296;2023-04-24T07:01:18;97159.47;;;10.25;100.00
4398;BME280;2213;49.720;7.296;2023-04-24T07:03:47;97157.69;;;10.13;100.00
4398;BME280;2213;49.720;7.296;2023-04-24T07:06:17;97158.31;;;10.15;100.00
4398;BME280;2213;49.720;7.296;2023-04-24T07:08:49;97159.09;;;10.15;100.00
4398;BME280;2213;49.720;7.296;2023-04-24T07:11:20;97159.09;;;10.15;100.00
4398;BME280;2213;49.720;7.296;2023-04-24T07:13:49;97163.09;;;10.11;100.00
4398;BME280;2213;49.720;7.296;2023-04-24T07:16:19;97161.50;;;10.10;100.00
4398;BME280;2213;49.720;7.296;2023-04-24T07:18:49;97159.69;;;10.17;100.00
4398;BME280;2213;49.720;7.296;2023-04-24T07:21:19;97172.53;;;10.25;100.00
4398;BME280;2213;49.720;7.296;2023-04-24T07:23:49;97166.13;;;10.21;100.00
4398;BME280;2213;49.720;7.296;2023-04-24T07:26:21;97171.72;;;10.25;100.00
4398;BME280;2213;49.720;7.296;2023-04-24T07:28:51;97170.13;;;10.30;100.00
4398;BME280;2213;49.720;7.296;2023-04-24T07:31:20;97173.72;;;10.29;100.00
4398;BME280;2213;49.720;7.296;2023-04-24T07:33:50;97181.56;;;10.29;100.00
4398;BME280;2213;49.720;7.296;2023-04-24T07:36:20;97176.75;;;10.26;100.00
4398;BME280;2213;49.720;7.296;2023-04-24T07:38:49;97186.78;;;10.29;100.00
4398;BME280;2213;49.720;7.296;2023-04-24T07:41:21;97189.38;;;10.36;100.00
4398;BME280;2213;49.720;7.296;2023-04-24T07:43:52;97194.41;;;10.37;100.00
4398;BME280;2213;49.720;7.296;2023-04-24T07:46:21;97196.03;;;10.25;100.00
4398;BME280;2213;49.720;7.296;2023-04-24T07:48:53;97204.50;;;10.14;100.00
4398;BME280;2213;49.720;7.296;2023-04-24T07:51:39;97208.94;;;10.20;100.00
4398;BME280;2213;49.720;7.296;2023-04-24T07:54:09;97224.19;;;10.23;100.00
4398;BME280;2213;49.720;7.296;2023-04-24T07:56:40;97230.84;;;10.19;100.00
4398;BME280;2213;49.720;7.296;2023-04-24T07:59:11;97234.66;;;10.17;100.00
4398;BME280;2213;49.720;7.296;2023-04-24T08:01:41;97241.28;;;10.13;100.00
4398;BME280;2213;49.720;7.296;2023-04-24T08:04:11;97249.94;;;10.20;100.00
4398;BME280;2213;49.720;7.296;2023-04-24T08:06:42;97248.31;;;10.12;100.00
4398;BME280;2213;49.720;7.296;2023-04-24T08:09:12;97241.88;;;10.08;100.00
4398;BME280;2213;49.720;7.296;2023-04-24T08:11:43;97247.91;;;10.08;100.00
4398;BME280;2213;49.720;7.296;2023-04-24T08:14:13;97249.72;;;10.15;100.00
4398;BME280;2213;49.720;7.296;2023-04-24T08:16:43;97249.72;;;10.15;100.00
4398;BME280;2213;49.720;7.296;2023-04-24T08:19:13;97253.72;;;10.17;100.00
4398;BME280;2213;49.720;7.296;2023-04-24T08:21:42;97248.91;;;10.14;100.00
4398;BME280;2213;49.720;7.296;2023-04-24T08:24:12;97256.97;;;10.19;100.00
4398;BME280;2213;49.720;7.296;2023-04-24T08:26:42;97255.75;;;10.15;100.00
4398;BME280;2213;49.720;7.296;2023-04-24T08:29:13;97267.22;;;10.14;100.00
4398;BME280;2213;49.720;7.296;2023-04-24T08:31:42;97267.22;;;10.14;100.00
4398;BME280;2213;49.720;7.296;2023-04-24T08:34:11;97268.41;;;10.11;100.00
4398;BME280;2213;49.720;7.296;2023-04-24T08:36:41;97270.03;;;10.06;100.00
4398;BME280;2213;49.720;7.296;2023-04-24T08:39:14;97265.22;;;10.03;100.00
4398;BME280;2213;49.720;7.296;2023-04-24T08:41:48;97275.66;;;10.09;100.00
4398;BME280;2213;49.720;7.296;2023-04-24T08:44:22;97277.25;;;10.04;100.00
4398;BME280;2213;49.720;7.296;2023-04-24T08:46:53;97281.88;;;10.02;100.00
4398;BME280;2213;49.720;7.296;2023-04-24T08:49:25;97279.44;;;10.07;100.00
4398;BME280;2213;49.720;7.296;2023-04-24T08:51:56;97278.03;;;10.11;100.00
4398;BME280;2213;49.720;7.296;2023-04-24T08:54:28;97283.69;;;10.15;100.00
4398;BME280;2213;49.720;7.296;2023-04-24T08:57:01;97286.69;;;10.18;100.00
4398;BME280;2213;49.720;7.296;2023-04-24T08:59:31;97284.09;;;10.18;100.00
4398;BME280;2213;49.720;7.296;2023-04-24T09:02:04;97287.69;;;10.17;100.00
4398;BME280;2213;49.720;7.296;2023-04-24T09:04:34;97281.47;;;10.18;100.00
4398;BME280;2213;49.720;7.296;2023-04-24T09:07:06;97294.53;;;10.25;100.00
4398;BME280;2213;49.720;7.296;2023-04-24T09:09:35;97298.75;;;10.19;100.00
4398;BME280;2213;49.720;7.296;2023-04-24T09:12:08;97299.75;;;10.18;100.00
4398;BME280;2213;49.720;7.296;2023-04-24T09:14:38;97295.53;;;10.17;100.00
4398;BME280;2213;49.720;7.296;2023-04-24T09:17:13;97294.13;;;10.28;100.00
4398;BME280;2213;49.720;7.296;2023-04-24T09:19:43;97294.50;;;10.31;100.00
4398;BME280;2213;49.720;7.296;2023-04-24T09:22:12;97295.31;;;10.38;100.00
4398;BME280;2213;49.720;7.296;2023-04-24T09:24:45;97294.91;;;10.35;100.00
4398;BME280;2213;49.720;7.296;2023-04-24T09:27:15;97287.28;;;10.33;100.00
4398;BME280;2213;49.720;7.296;2023-04-24T09:29:54;97295.31;;;10.38;100.00
4398;BME280;2213;49.720;7.296;2023-04-24T09:32:25;97302.53;;;10.43;100.00
4398;BME280;2213;49.720;7.296;2023-04-24T09:35:10;97299.94;;;10.43;100.00
4398;BME280;2213;49.720;7.296;2023-04-24T09:37:41;97312.97;;;10.49;100.00
4398;BME280;2213;49.720;7.296;2023-04-24T09:40:16;97312.59;;;10.46;100.00
4398;BME280;2213;49.720;7.296;2023-04-24T09:42:53;97304.16;;;10.50;100.00
4398;BME280;2213;49.720;7.296;2023-04-24T09:45:27;97317.63;;;10.47;100.00
4398;BME280;2213;49.720;7.296;2023-04-24T09:47:57;97321.03;;;10.48;100.00
4398;BME280;2213;49.720;7.296;2023-04-24T09:50:26;97321.03;;;10.35;100.00
4398;BME280;2213;49.720;7.296;2023-04-24T09:53:02;97323.66;;;10.35;100.00
4398;BME280;2213;49.720;7.296;2023-04-24T09:55:33;97327.88;;;10.36;100.00
4398;BME280;2213;49.720;7.296;2023-04-24T09:58:03;97326.66;;;10.38;100.00
4398;BME280;2213;49.720;7.296;2023-04-24T10:00:33;97328.28;;;10.39;100.00
4398;BME280;2213;49.720;7.296;2023-04-24T10:03:04;97325.25;;;10.42;100.00
4398;BME280;2213;49.720;7.296;2023-04-24T10:05:37;97327.88;;;10.42;100.00
4398;BME280;2213;49.720;7.296;2023-04-24T10:08:10;97340.34;;;10.47;100.00
4398;BME280;2213;49.720;7.296;2023-04-24T10:10:44;97331.69;;;10.46;100.00
4398;BME280;2213;49.720;7.296;2023-04-24T10:13:16;97342.53;;;10.50;100.00
4398;BME280;2213;49.720;7.296;2023-04-24T10:15:48;97339.91;;;10.56;100.00
4398;BME280;2213;49.720;7.296;2023-04-24T10:18:20;97338.69;;;10.59;100.00
4398;BME280;2213;49.720;7.296;2023-04-24T10:20:52;97352.38;;;10.68;100.00
4398;BME280;2213;49.720;7.296;2023-04-24T10:23:24;97346.91;;;10.69;100.00
4398;BME280;2213;49.720;7.296;2023-04-24T10:25:55;97354.56;;;10.71;100.00
4398;BME280;2213;49.720;7.296;2023-04-24T10:28:27;97346.50;;;10.79;100.00
4398;BME280;2213;49.720;7.296;2023-04-24T10:30:58;97347.94;;;10.75;100.00
4398;BME280;2213;49.720;7.296;2023-04-24T10:33:27;97347.91;;;10.81;100.00
4398;BME280;2213;49.720;7.296;2023-04-24T10:36:00;97355.16;;;10.86;100.00
4398;BME280;2213;49.720;7.296;2023-04-24T10:38:31;97361.97;;;10.87;100.00
4398;BME280;2213;49.720;7.296;2023-04-24T10:41:08;97365.00;;;10.84;100.00
4398;BME280;2213;49.720;7.296;2023-04-24T10:43:45;97371.41;;;10.88;100.00
4398;BME280;2213;49.720;7.296;2023-04-24T10:46:20;97385.47;;;10.93;100.00
4398;BME280;2213;49.720;7.296;2023-04-24T10:48:53;97384.91;;;10.91;100.00
4398;BME280;2213;49.720;7.296;2023-04-24T10:51:24;97386.94;;;10.83;100.00
4398;BME280;2213;49.720;7.296;2023-04-24T10:54:23;97393.38;;;10.74;100.00
4398;BME280;2213;49.720;7.296;2023-04-24T10:56:56;97407.06;;;10.69;100.00
4398;BME280;2213;49.720;7.296;2023-04-24T10:59:46;97414.09;;;10.75;100.00
4398;BME280;2213;49.720;7.296;2023-04-24T11:02:17;97410.28;;;10.78;100.00
4398;BME280;2213;49.720;7.296;2023-04-24T11:04:51;97409.47;;;10.77;100.00
4398;BME280;2213;49.720;7.296;2023-04-24T11:07:21;97403.03;;;10.86;100.00
4398;BME280;2213;49.720;7.296;2023-04-24T11:09:59;97410.44;;;10.96;100.00
4398;BME280;2213;49.720;7.296;2023-04-24T11:12:35;97410.22;;;11.04;100.00
4398;BME280;2213;49.720;7.296;2023-04-24T11:15:12;97407.38;;;11.12;100.00
4398;BME280;2213;49.720;7.296;2023-04-24T11:17:44;97414.00;;;11.15;100.00
4398;BME280;2213;49.720;7.296;2023-04-24T11:20:19;97413.81;;;11.16;100.00
4398;BME280;2213;49.720;7.296;2023-04-24T11:22:58;97416.81;;;11.20;100.00
4398;BME280;2213;49.720;7.296;2023-04-24T11:25:34;97426.88;;;11.23;100.00
4398;BME280;2213;49.720;7.296;2023-04-24T11:28:05;97421.63;;;11.29;100.00
4398;BME280;2213;49.720;7.296;2023-04-24T11:30:41;97427.47;;;11.31;100.00
4398;BME280;2213;49.720;7.296;2023-04-24T11:33:11;97429.03;;;11.32;100.00
4398;BME280;2213;49.720;7.296;2023-04-24T11:35:51;97418.97;;;11.36;100.00
4398;BME280;2213;49.720;7.296;2023-04-24T11:38:21;97436.47;;;11.35;100.00
4398;BME280;2213;49.720;7.296;2023-04-24T11:40:52;97430.47;;;11.35;100.00
4398;BME280;2213;49.720;7.296;2023-04-24T11:43:22;97433.09;;;11.28;100.00
4398;BME280;2213;49.720;7.296;2023-04-24T11:45:54;97427.25;;;11.33;100.00
4398;BME280;2213;49.720;7.296;2023-04-24T11:48:25;97435.06;;;11.39;100.00
4398;BME280;2213;49.720;7.296;2023-04-24T11:50:55;97424.41;;;11.41;100.00
4398;BME280;2213;49.720;7.296;2023-04-24T11:53:25;97430.19;;;11.49;100.00
4398;BME280;2213;49.720;7.296;2023-04-24T11:55:55;97430.38;;;11.54;100.00
4398;BME280;2213;49.720;7.296;2023-04-24T11:58:25;97434.63;;;11.55;100.00
4398;BME280;2213;49.720;7.296;2023-04-24T12:00:57;97434.97;;;11.66;100.00
4398;BME280;2213;49.720;7.296;2023-04-24T12:03:29;97444.03;;;11.70;100.00
4398;BME280;2213;49.720;7.296;2023-04-24T12:06:05;97438.56;;;11.78;100.00
4398;BME280;2213;49.720;7.296;2023-04-24T12:08:37;97436.94;;;11.77;100.00
4398;BME280;2213;49.720;7.296;2023-04-24T12:11:07;97442.41;;;11.75;100.00
4398;BME280;2213;49.720;7.296;2023-04-24T12:13:37;97436.16;;;11.76;100.00
4398;BME280;2213;49.720;7.296;2023-04-24T12:16:08;97447.03;;;11.80;100.00
4398;BME280;2213;49.720;7.296;2023-04-24T12:18:42;97440.53;;;11.89;100.00
4398;BME280;2213;49.720;7.296;2023-04-24T12:21:19;97433.63;;;11.94;100.00
4398;BME280;2213;49.720;7.296;2023-04-24T12:23:50;97441.66;;;11.99;100.00
4398;BME280;2213;49.720;7.296;2023-04-24T12:26:20;97447.34;;;11.96;100.00
4398;BME280;2213;49.720;7.296;2023-04-24T12:28:51;97443.72;;;11.97;100.00
4398;BME280;2213;49.720;7.296;2023-04-24T12:31:22;97449.31;;;12.01;100.00
4398;BME280;2213;49.720;7.296;2023-04-24T12:33:52;97445.91;;;12.00;100.00
4398;BME280;2213;49.720;7.296;2023-04-24T12:36:21;97448.09;;;12.03;100.00
4398;BME280;2213;49.720;7.296;2023-04-24T12:38:54;97449.50;;;12.06;100.00
4398;BME280;2213;49.720;7.296;2023-04-24T12:41:26;97442.81;;;12.10;100.00
4398;BME280;2213;49.720;7.296;2023-04-24T12:43:56;97448.31;;;12.02;100.00
4398;BME280;2213;49.720;7.296;2023-04-24T12:46:28;97446.09;;;11.99;100.00
4398;BME280;2213;49.720;7.296;2023-04-24T12:48:57;97452.53;;;12.03;100.00
4398;BME280;2213;49.720;7.296;2023-04-24T12:51:28;97457.34;;;12.06;100.00
4398;BME280;2213;49.720;7.296;2023-04-24T12:53:59;97449.88;;;12.09;100.00
4398;BME280;2213;49.720;7.296;2023-04-24T12:56:29;97442.34;;;12.20;100.00
4398;BME280;2213;49.720;7.296;2023-04-24T12:58:58;97448.78;;;12.24;100.00
4398;BME280;2213;49.720;7.296;2023-04-24T13:01:31;97453.63;;;12.20;100.00
4398;BME280;2213;49.720;7.296;2023-04-24T13:04:00;97446.78;;;12.19;100.00
4398;BME280;2213;49.720;7.296;2023-04-24T13:06:31;97463.69;;;12.23;100.00
4398;BME280;2213;49.720;7.296;2023-04-24T13:09:01;97451.59;;;12.22;100.00
4398;BME280;2213;49.720;7.296;2023-04-24T13:11:30;97455.25;;;12.21;100.00
4398;BME280;2213;49.720;7.296;2023-04-24T13:14:00;97454.50;;;12.14;100.00
4398;BME280;2213;49.720;7.296;2023-04-24T13:16:31;97463.75;;;12.17;100.00
4398;BME280;2213;49.720;7.296;2023-04-24T13:19:02;97454.03;;;12.24;100.00
4398;BME280;2213;49.720;7.296;2023-04-24T13:21:31;97459.22;;;12.30;100.00
4398;BME280;2213;49.720;7.296;2023-04-24T13:23:59;97455.16;;;12.34;100.00
4398;BME280;2213;49.720;7.296;2023-04-24T13:26:29;97449.44;;;12.44;100.00
4398;BME280;2213;49.720;7.296;2023-04-24T13:28:58;97448.19;;;12.46;100.00
4398;BME280;2213;49.720;7.296;2023-04-24T13:31:27;97452.75;;;12.57;100.00
4398;BME280;2213;49.720;7.296;2023-04-24T13:33:57;97458.31;;;12.68;100.00